Time;durP1;ratioP1;P1;durP2;ratioP2;P2;SDS_P1;SDS_P2;PMS_P1;PMS_P2;Temp;Humidity;BMP_temperature;BMP_pressure;BME280_temperature;BME280_humidity;BME280_pressure;Samples;Min_cycle;Max_cycle;Signal;HPM_P1;HPM_P2
2022/01/08 00:00:32;;;;;;;;;0.00;0.00;;;;;-142.59;100.00;56100.38;4913379;28;49636;-77
2022/01/08 00:02:58;;;;;;;;;0.00;0.00;;;;;-142.59;100.00;56100.38;4913777;28;50742;-79
2022/01/08 00:05:26;;;;;;;;;0.00;0.00;;;;;-142.59;100.00;56100.38;4913362;28;49764;-78
2022/01/08 00:07:52;;;;;;;;;0.50;0.00;;;;;-142.59;100.00;56100.38;4913434;28;49688;-78
2022/01/08 00:10:23;;;;;;;;;1.00;1.00;;;;;-142.59;100.00;56100.38;4913649;28;49986;-78
2022/01/08 00:13:01;;;;;;;;;0.00;0.00;;;;;-142.59;100.00;56100.38;4913485;28;50062;-77
2022/01/08 00:15:27;;;;;;;;;0.75;0.00;;;;;-142.59;100.00;56100.38;4913224;28;50054;-77
2022/01/08 00:17:52;;;;;;;;;0.00;0.00;;;;;-142.59;100.00;56100.38;4896044;28;49871;-77
2022/01/08 00:20:18;;;;;;;;;0.00;0.00;;;;;-142.59;100.00;56100.38;4912916;28;50097;-77
2022/01/08 00:22:50;;;;;;;;;0.00;0.00;;;;;-142.59;100.00;56100.38;4913592;28;50095;-77
2022/01/08 00:25:23;;;;;;;;;0.00;0.00;;;;;-142.59;100.00;56100.38;4912732;28;50149;-78
2022/01/08 00:27:49;;;;;;;;;1.00;0.00;;;;;-142.59;100.00;56100.38;4912902;28;49728;-78
2022/01/08 00:30:14;;;;;;;;;0.25;0.25;;;;;-142.59;100.00;56100.38;4913406;28;49942;-76
2022/01/08 00:32:41;;;;;;;;;0.00;0.00;;;;;-142.59;100.00;56100.38;4913275;28;49826;-77
2022/01/08 00:35:12;;;;;;;;;0.00;0.00;;;;;-142.59;100.00;56100.38;4912976;28;49986;-78
2022/01/08 00:37:54;;;;;;;;;0.00;0.00;;;;;-142.59;100.00;56100.38;4906746;28;49664;-79
2022/01/08 00:40:26;;;;;;;;;0.75;0.00;;;;;-142.59;100.00;56100.38;4912898;28;49895;-78
2022/01/08 00:42:52;;;;;;;;;0.00;0.00;;;;;-142.59;100.00;56100.38;4913054;28;50148;-78
2022/01/08 00:45:20;;;;;;;;;0.00;0.00;;;;;-142.59;100.00;56100.38;4912801;28;49804;-79
2022/01/08 00:47:46;;;;;;;;;1.00;0.00;;;;;-142.59;100.00;56100.38;4912904;28;49699;-79
2022/01/08 00:50:12;;;;;;;;;0.00;0.00;;;;;-142.59;100.00;56100.38;4912943;28;49871;-78
2022/01/08 00:52:40;;;;;;;;;1.00;0.00;;;;;-142.59;100.00;56100.38;4913193;28;49558;-79
2022/01/08 00:55:07;;;;;;;;;0.00;0.00;;;;;-142.59;100.00;56100.38;4912843;28;49973;-78
2022/01/08 00:57:33;;;;;;;;;1.75;0.25;;;;;-142.59;100.00;56100.38;4912604;28;49756;-77
2022/01/08 00:59:59;;;;;;;;;0.50;0.50;;;;;-142.59;100.00;56100.38;4912786;28;50112;-77
2022/01/08 01:02:27;;;;;;;;;1.00;1.00;;;;;-142.59;100.00;56100.38;4913299;28;49844;-77
2022/01/08 01:04:53;;;;;;;;;1.50;0.00;;;;;-142.59;100.00;56100.38;4912649;28;49833;-77
2022/01/08 01:07:18;;;;;;;;;0.25;0.00;;;;;-142.59;100.00;56100.38;4912752;28;49869;-76
2022/01/08 01:09:44;;;;;;;;;1.00;1.00;;;;;-142.59;100.00;56100.38;4913113;28;49997;-78
2022/01/08 01:12:10;;;;;;;;;1.00;0.00;;;;;-142.59;100.00;56100.38;4912516;28;50013;-77
2022/01/08 01:14:35;;;;;;;;;1.00;1.00;;;;;-142.59;100.00;56100.38;4912540;28;49756;-78
2022/01/08 01:17:02;;;;;;;;;1.00;1.00;;;;;-142.59;100.00;56100.38;4912634;28;49886;-77
2022/01/08 01:19:27;;;;;;;;;1.50;1.00;;;;;-142.59;100.00;56100.38;4912621;28;49768;-78
2022/01/08 01:21:54;;;;;;;;;0.00;0.00;;;;;-142.59;100.00;56100.38;4912857;28;49610;-78
2022/01/08 01:24:24;;;;;;;;;3.00;1.25;;;;;-142.59;100.00;56100.38;4912185;28;51268;-79
2022/01/08 01:30:02;;;;;;;;;3.00;1.25;;;;;-142.59;100.00;56100.38;4912473;28;49776;-79
2022/01/08 01:48:54;;;;;;;;;2.75;2.00;;;;;-142.59;100.00;56100.38;4915482;28;49705;-78
2022/01/08 01:51:21;;;;;;;;;2.00;2.00;;;;;-142.59;100.00;56100.38;4915580;28;49723;-78
2022/01/08 01:53:48;;;;;;;;;2.75;1.00;;;;;-142.59;100.00;56100.38;4915443;28;50012;-78
2022/01/08 01:56:17;;;;;;;;;1.00;1.00;;;;;-142.59;100.00;56100.38;4915216;28;50683;-77
2022/01/08 01:58:43;;;;;;;;;5.00;2.00;;;;;-142.59;100.00;56100.38;4915076;28;50088;-76
2022/01/08 02:01:08;;;;;;;;;1.00;1.00;;;;;-142.59;100.00;56100.38;4915152;28;49817;-76
2022/01/08 02:03:35;;;;;;;;;1.00;1.00;;;;;-142.59;100.00;56100.38;4914024;28;49838;-77
2022/01/08 02:06:00;;;;;;;;;2.50;2.50;;;;;-142.59;100.00;56100.38;4914777;28;49993;-78
2022/01/08 02:08:28;;;;;;;;;1.25;1.00;;;;;-142.59;100.00;56100.38;4915172;28;49793;-77
2022/01/08 02:10:54;;;;;;;;;7.00;6.00;;;;;-142.59;100.00;56100.38;4915048;28;49951;-78
2022/01/08 02:13:24;;;;;;;;;1.75;1.75;;;;;-142.59;100.00;56100.38;4915037;28;49683;-78
2022/01/08 02:15:54;;;;;;;;;5.00;1.00;;;;;-142.59;100.00;56100.38;4914789;28;50683;-78
2022/01/08 02:18:21;;;;;;;;;1.50;1.50;;;;;-142.59;100.00;56100.38;4914870;28;49992;-78
2022/01/08 02:20:47;;;;;;;;;1.50;1.50;;;;;-142.59;100.00;56100.38;4915112;28;49788;-78
2022/01/08 02:23:12;;;;;;;;;3.00;3.00;;;;;-142.59;100.00;56100.38;4915109;28;49903;-78
2022/01/08 02:25:38;;;;;;;;;0.50;0.50;;;;;-142.59;100.00;56100.38;4914458;28;50245;-79
2022/01/08 02:28:04;;;;;;;;;1.00;1.00;;;;;-142.59;100.00;56100.38;4914531;28;49728;-78
2022/01/08 02:30:29;;;;;;;;;2.25;2.25;;;;;-142.59;100.00;56100.38;4914795;28;49903;-79
2022/01/08 02:32:55;;;;;;;;;1.00;1.00;;;;;-142.59;100.00;56100.38;4914999;28;50353;-78
2022/01/08 02:35:21;;;;;;;;;1.00;1.00;;;;;-142.59;100.00;56100.38;4914550;28;50365;-77
2022/01/08 02:37:47;;;;;;;;;0.25;0.00;;;;;-142.59;100.00;56100.38;4908447;28;49824;-78
2022/01/08 02:40:13;;;;;;;;;0.75;0.75;;;;;-142.59;100.00;56100.38;4914680;28;49995;-78
2022/01/08 02:42:49;;;;;;;;;2.00;2.00;;;;;-142.59;100.00;56100.38;4914465;28;49753;-77
2022/01/08 02:45:14;;;;;;;;;0.25;0.25;;;;;-142.59;100.00;56100.38;4913956;28;49728;-78
2022/01/08 02:47:40;;;;;;;;;2.00;2.00;;;;;-142.59;100.00;56100.38;4914373;28;49713;-78
2022/01/08 02:50:05;;;;;;;;;7.50;2.00;;;;;-142.59;100.00;56100.38;4897209;28;50222;-78
2022/01/08 02:52:31;;;;;;;;;2.75;2.75;;;;;-142.59;100.00;56100.38;4894385;28;50026;-78
2022/01/08 02:54:56;;;;;;;;;1.00;1.00;;;;;-142.59;100.00;56100.38;4913585;28;49935;-78
2022/01/08 02:57:21;;;;;;;;;1.00;1.00;;;;;-142.59;100.00;56100.38;4914402;28;49728;-77
2022/01/08 02:59:47;;;;;;;;;4.00;2.00;;;;;-142.59;100.00;56100.38;4914584;28;49994;-78
2022/01/08 03:02:13;;;;;;;;;2.00;1.00;;;;;-142.59;100.00;56100.38;4914384;28;49824;-77
2022/01/08 03:04:39;;;;;;;;;2.00;1.50;;;;;-142.59;100.00;56100.38;4913987;28;49892;-77
2022/01/08 03:07:04;;;;;;;;;1.00;1.00;;;;;-142.59;100.00;56100.38;4914313;28;49686;-78
2022/01/08 03:09:33;;;;;;;;;1.50;1.50;;;;;-142.59;100.00;56100.38;4914078;28;49930;-77
2022/01/08 03:11:58;;;;;;;;;1.50;1.50;;;;;-142.59;100.00;56100.38;4914040;28;50300;-78
2022/01/08 03:14:24;;;;;;;;;3.50;0.75;;;;;-142.59;100.00;56100.38;4913904;28;49999;-77
2022/01/08 03:16:49;;;;;;;;;1.50;1.50;;;;;-142.59;100.00;56100.38;4914270;28;49843;-77
2022/01/08 03:19:15;;;;;;;;;1.00;1.00;;;;;-142.59;100.00;56100.38;4914292;28;50205;-78
2022/01/08 03:21:45;;;;;;;;;1.50;1.25;;;;;-142.59;100.00;56100.38;4914037;28;49840;-77
2022/01/08 03:24:16;;;;;;;;;2.75;1.00;;;;;-142.59;100.00;56100.38;4913851;28;49971;-77
2022/01/08 03:26:41;;;;;;;;;2.75;1.00;;;;;-142.59;100.00;56100.38;4913701;28;49685;-78
2022/01/08 03:29:08;;;;;;;;;1.75;1.75;;;;;-142.59;100.00;56100.38;4914071;28;49985;-78
2022/01/08 03:31:33;;;;;;;;;1.75;1.75;;;;;-142.59;100.00;56100.38;4914152;28;49899;-78
2022/01/08 03:33:59;;;;;;;;;2.00;1.00;;;;;-142.59;100.00;56100.38;4896476;28;52413;-77
2022/01/08 03:36:25;;;;;;;;;2.75;1.00;;;;;-142.59;100.00;56100.38;4913697;28;49721;-78
2022/01/08 03:38:51;;;;;;;;;1.75;1.75;;;;;-142.59;100.00;56100.38;4913716;28;50031;-78
2022/01/08 03:41:17;;;;;;;;;1.25;1.00;;;;;-142.59;100.00;56100.38;4896491;28;49890;-77
2022/01/08 03:43:43;;;;;;;;;1.00;1.00;;;;;-142.59;100.00;56100.38;4913422;28;50738;-77
2022/01/08 03:46:10;;;;;;;;;0.00;0.00;;;;;-142.59;100.00;56100.38;4913324;28;49980;-77
2022/01/08 03:48:47;;;;;;;;;1.00;1.00;;;;;-142.59;100.00;56100.38;4913608;28;49808;-77
2022/01/08 03:51:14;;;;;;;;;2.50;2.50;;;;;-142.59;100.00;56100.38;4913641;28;50413;-78
2022/01/08 03:53:41;;;;;;;;;3.00;3.00;;;;;-142.59;100.00;56100.38;4913505;28;49812;-77
2022/01/08 03:56:06;;;;;;;;;1.00;1.00;;;;;-142.59;100.00;56100.38;4912594;28;49756;-76
2022/01/08 03:58:32;;;;;;;;;1.25;1.25;;;;;-142.59;100.00;56100.38;4913504;28;49960;-76
2022/01/08 04:00:57;;;;;;;;;6.00;4.25;;;;;-142.59;100.00;56100.38;4913384;28;49665;-75
2022/01/08 04:03:23;;;;;;;;;3.25;3.00;;;;;-142.59;100.00;56100.38;4913182;28;50729;-77
2022/01/08 04:05:50;;;;;;;;;2.50;1.75;;;;;-142.59;100.00;56100.38;4913261;28;49726;-76
2022/01/08 04:08:16;;;;;;;;;5.25;5.00;;;;;-142.59;100.00;56100.38;4913356;28;50154;-76
2022/01/08 04:10:42;;;;;;;;;2.00;2.00;;;;;-142.59;100.00;56100.38;4913475;28;50011;-76
2022/01/08 04:13:14;;;;;;;;;1.00;1.00;;;;;-142.59;100.00;56100.38;4912818;28;50710;-78
2022/01/08 04:15:43;;;;;;;;;1.00;1.00;;;;;-142.59;100.00;56100.38;4913212;28;49838;-76
2022/01/08 04:18:10;;;;;;;;;1.00;1.00;;;;;-142.59;100.00;56100.38;4913151;28;49775;-77
2022/01/08 04:20:47;;;;;;;;;0.50;0.50;;;;;-142.59;100.00;56100.38;4896087;28;49824;-77
2022/01/08 04:23:14;;;;;;;;;1.00;1.00;;;;;-142.59;100.00;56100.38;4912895;28;50879;-77
2022/01/08 04:25:39;;;;;;;;;1.00;1.00;;;;;-142.59;100.00;56100.38;4913126;28;49782;-76
2022/01/08 04:28:05;;;;;;;;;1.25;1.00;;;;;-142.59;100.00;56100.38;4913059;28;49731;-76
2022/01/08 04:30:30;;;;;;;;;2.75;0.25;;;;;-142.59;100.00;56100.38;4913257;28;49994;-76
2022/01/08 04:32:56;;;;;;;;;0.75;0.75;;;;;-142.59;100.00;56100.38;4912773;28;51036;-76
2022/01/08 04:35:21;;;;;;;;;1.00;1.00;;;;;-142.59;100.00;56100.38;4913016;28;50396;-75
2022/01/08 04:37:46;;;;;;;;;2.00;1.25;;;;;-142.59;100.00;56100.38;4912853;28;49897;-77
2022/01/08 04:40:12;;;;;;;;;1.25;1.25;;;;;-142.59;100.00;56100.38;4913101;28;49887;-78
2022/01/08 04:42:37;;;;;;;;;1.25;1.25;;;;;-142.59;100.00;56100.38;4912557;28;51031;-77
2022/01/08 04:45:03;;;;;;;;;1.25;1.25;;;;;-142.59;100.00;56100.38;4912797;28;50392;-77
2022/01/08 04:47:29;;;;;;;;;0.50;0.50;;;;;-142.59;100.00;56100.38;4912781;28;50008;-76
2022/01/08 04:49:54;;;;;;;;;1.00;1.00;;;;;-142.59;100.00;56100.38;4913094;28;49871;-77
2022/01/08 04:52:20;;;;;;;;;0.00;0.00;;;;;-142.59;100.00;56100.38;4912603;28;49681;-77
2022/01/08 04:54:45;;;;;;;;;0.25;0.25;;;;;-142.59;100.00;56100.38;4912816;28;49985;-78
2022/01/08 04:57:10;;;;;;;;;0.50;0.25;;;;;-142.59;100.00;56100.38;4912517;28;49914;-77
2022/01/08 04:59:36;;;;;;;;;1.00;1.00;;;;;-142.59;100.00;56100.38;4912758;28;49852;-76
2022/01/08 05:02:01;;;;;;;;;1.00;1.00;;;;;-142.59;100.00;56100.38;4912558;28;49923;-75
2022/01/08 05:04:27;;;;;;;;;1.25;1.25;;;;;-142.59;100.00;56100.38;4912506;28;49793;-76
2022/01/08 05:06:53;;;;;;;;;3.50;1.75;;;;;-142.59;100.00;56100.38;4913517;28;50050;-76
2022/01/08 05:09:18;;;;;;;;;1.00;1.00;;;;;-142.59;100.00;56100.38;4916298;28;49921;-76
2022/01/08 05:11:43;;;;;;;;;1.00;1.00;;;;;-142.59;100.00;56100.38;4915501;28;49930;-75
2022/01/08 05:14:10;;;;;;;;;0.50;0.00;;;;;-142.59;100.00;56100.38;4898843;28;49690;-77
2022/01/08 05:16:39;;;;;;;;;1.00;0.50;;;;;-142.59;100.00;56100.38;4916116;28;49659;-77
2022/01/08 05:19:05;;;;;;;;;1.75;1.75;;;;;-142.59;100.00;56100.38;4910080;28;49738;-76
2022/01/08 05:21:33;;;;;;;;;1.00;1.00;;;;;-142.59;100.00;56100.38;4898474;28;51529;-76
2022/01/08 05:23:58;;;;;;;;;0.75;0.75;;;;;-142.59;100.00;56100.38;4915798;28;49833;-77
2022/01/08 05:26:26;;;;;;;;;1.00;1.00;;;;;-142.59;100.00;56100.38;4915469;28;49998;-77
2022/01/08 05:28:55;;;;;;;;;1.75;1.00;;;;;-142.59;100.00;56100.38;4915824;28;50129;-76
2022/01/08 05:31:22;;;;;;;;;2.00;1.00;;;;;-142.59;100.00;56100.38;4915548;28;50957;-76
2022/01/08 05:33:50;;;;;;;;;2.00;2.00;;;;;-142.59;100.00;56100.38;4915660;28;49797;-77
2022/01/08 05:36:16;;;;;;;;;4.00;1.50;;;;;-142.59;100.00;56100.38;4915676;28;49874;-77
2022/01/08 05:38:41;;;;;;;;;5.00;2.25;;;;;-142.59;100.00;56100.38;4915953;28;49958;-77
2022/01/08 05:41:07;;;;;;;;;2.25;1.00;;;;;-142.59;100.00;56100.38;4915283;28;49805;-76
2022/01/08 05:43:33;;;;;;;;;2.50;1.00;;;;;-142.59;100.00;56100.38;4915661;28;49991;-76
2022/01/08 05:45:58;;;;;;;;;1.00;1.00;;;;;-142.59;100.00;56100.38;4898119;28;49814;-76
2022/01/08 05:48:25;;;;;;;;;0.25;0.25;;;;;-142.59;100.00;56100.38;4915531;28;50039;-77
2022/01/08 05:50:51;;;;;;;;;2.00;2.00;;;;;-142.59;100.00;56100.38;4915301;28;50911;-77
2022/01/08 05:53:17;;;;;;;;;1.75;0.75;;;;;-142.59;100.00;56100.38;4915434;28;49885;-77
2022/01/08 05:55:43;;;;;;;;;1.00;1.00;;;;;-142.59;100.00;56100.38;4915474;28;49885;-78
2022/01/08 05:58:08;;;;;;;;;1.25;0.00;;;;;-142.59;100.00;56100.38;4915368;28;49631;-77
2022/01/08 06:00:34;;;;;;;;;0.75;0.75;;;;;-142.59;100.00;56100.38;4914908;28;49892;-76
2022/01/08 06:02:59;;;;;;;;;0.50;0.00;;;;;-142.59;100.00;56100.38;4915350;28;50081;-77
2022/01/08 06:05:25;;;;;;;;;1.25;1.25;;;;;-142.59;100.00;56100.38;4897957;28;49714;-76
2022/01/08 06:07:51;;;;;;;;;0.00;0.00;;;;;-142.59;100.00;56100.38;4898150;28;50201;-77
2022/01/08 06:10:16;;;;;;;;;1.00;1.00;;;;;-142.59;100.00;56100.38;4915031;28;49976;-78
2022/01/08 06:12:42;;;;;;;;;0.75;0.75;;;;;-142.59;100.00;56100.38;4915024;28;49907;-77
2022/01/08 06:15:08;;;;;;;;;1.75;1.00;;;;;-142.59;100.00;56100.38;4915084;28;49823;-77
2022/01/08 06:17:33;;;;;;;;;5.25;3.50;;;;;-142.59;100.00;56100.38;4915385;28;49938;-77
2022/01/08 06:19:59;;;;;;;;;2.00;1.00;;;;;-142.59;100.00;56100.38;4914261;28;50898;-77
2022/01/08 06:22:24;;;;;;;;;1.50;1.00;;;;;-142.59;100.00;56100.38;4914912;28;49941;-79
2022/01/08 06:24:50;;;;;;;;;1.00;1.00;;;;;-142.59;100.00;56100.38;4914787;28;49829;-79
2022/01/08 06:27:15;;;;;;;;;1.50;1.00;;;;;-142.59;100.00;56100.38;4915050;28;49732;-78
2022/01/08 06:29:40;;;;;;;;;5.00;1.75;;;;;-142.59;100.00;56100.38;4914819;28;49670;-78
2022/01/08 06:32:06;;;;;;;;;1.25;1.25;;;;;-142.59;100.00;56100.38;4919402;28;49812;-75
2022/01/08 06:34:32;;;;;;;;;0.25;0.25;;;;;-142.59;100.00;56100.38;4925834;28;49680;-74
2022/01/08 06:36:57;;;;;;;;;2.50;1.00;;;;;-142.59;100.00;56100.38;4921046;28;49768;-70
2022/01/08 06:39:22;;;;;;;;;1.00;1.00;;;;;-142.59;100.00;56100.38;4916877;28;50350;-72
2022/01/08 06:41:48;;;;;;;;;2.00;2.00;;;;;-142.59;100.00;56100.38;4919155;28;49661;-72
2022/01/08 06:44:13;;;;;;;;;1.00;1.00;;;;;-142.59;100.00;56100.38;4914944;28;49658;-72
2022/01/08 06:46:40;;;;;;;;;5.50;2.75;;;;;-142.59;100.00;56100.38;4923246;28;49776;-72
2022/01/08 06:49:06;;;;;;;;;0.50;0.50;;;;;-142.59;100.00;56100.38;4922013;28;49964;-71
2022/01/08 06:51:31;;;;;;;;;0.25;0.25;;;;;-142.59;100.00;56100.38;4918449;28;49652;-71
2022/01/08 06:53:57;;;;;;;;;1.50;1.00;;;;;-142.59;100.00;56100.38;4912467;28;50100;-69
2022/01/08 06:56:22;;;;;;;;;1.75;0.75;;;;;-142.59;100.00;56100.38;4912784;28;50083;-71
2022/01/08 06:58:48;;;;;;;;;0.00;0.00;;;;;-142.59;100.00;56100.38;4914492;28;49970;-72
2022/01/08 07:01:14;;;;;;;;;1.00;1.00;;;;;-142.59;100.00;56100.38;4912143;28;50247;-71
2022/01/08 07:03:39;;;;;;;;;1.00;1.00;;;;;-142.59;100.00;56100.38;4897213;28;50040;-68
2022/01/08 07:06:04;;;;;;;;;0.50;0.50;;;;;-142.59;100.00;56100.38;4918356;28;49889;-72
2022/01/08 07:08:30;;;;;;;;;5.50;2.00;;;;;-142.59;100.00;56100.38;4914687;28;50649;-69
2022/01/08 07:10:56;;;;;;;;;0.00;0.00;;;;;-142.59;100.00;56100.38;4880375;29;49825;-71
2022/01/08 07:13:22;;;;;;;;;1.00;0.75;;;;;-142.59;100.00;56100.38;4913496;28;49813;-68
2022/01/08 07:15:47;;;;;;;;;3.50;2.00;;;;;-142.59;100.00;56100.38;4914834;28;49604;-67
2022/01/08 07:18:13;;;;;;;;;1.25;0.50;;;;;-142.59;100.00;56100.38;4913918;28;50922;-68
2022/01/08 07:20:38;;;;;;;;;1.50;1.00;;;;;-142.59;100.00;56100.38;4899426;28;49752;-69
2022/01/08 07:23:03;;;;;;;;;1.50;1.50;;;;;-142.59;100.00;56100.38;4924462;28;49588;-69
2022/01/08 07:25:29;;;;;;;;;3.00;1.50;;;;;-142.59;100.00;56100.38;4913995;28;49901;-70
2022/01/08 07:27:54;;;;;;;;;3.50;1.50;;;;;-142.59;100.00;56100.38;4913384;28;49895;-68
2022/01/08 07:30:21;;;;;;;;;2.00;0.50;;;;;-142.59;100.00;56100.38;4912872;28;49765;-72
2022/01/08 07:32:49;;;;;;;;;2.00;1.00;;;;;-142.59;100.00;56100.38;4916530;28;50016;-67
2022/01/08 07:35:19;;;;;;;;;2.00;1.75;;;;;-142.59;100.00;56100.38;4914029;28;50492;-66
2022/01/08 07:37:44;;;;;;;;;1.75;0.75;;;;;-142.59;100.00;56100.38;4917227;28;49998;-66
2022/01/08 07:40:11;;;;;;;;;1.25;1.25;;;;;-142.59;100.00;56100.38;4914906;28;49932;-67
2022/01/08 07:42:38;;;;;;;;;1.00;1.00;;;;;-142.59;100.00;56100.38;4912256;28;49962;-66
2022/01/08 07:45:04;;;;;;;;;1.25;1.25;;;;;-142.59;100.00;56100.38;4912546;28;49710;-66
2022/01/08 07:47:29;;;;;;;;;3.00;2.00;;;;;-142.59;100.00;56100.38;4913972;28;50089;-66
2022/01/08 07:49:55;;;;;;;;;5.00;1.75;;;;;-142.59;100.00;56100.38;4913567;28;49869;-66
2022/01/08 07:52:20;;;;;;;;;1.25;0.25;;;;;-142.59;100.00;56100.38;4913980;28;49728;-66
2022/01/08 07:54:46;;;;;;;;;1.00;1.00;;;;;-142.59;100.00;56100.38;4913664;28;49864;-66
2022/01/08 07:57:11;;;;;;;;;5.75;2.50;;;;;-142.59;100.00;56100.38;4913499;28;51009;-66
2022/01/08 07:59:36;;;;;;;;;6.00;4.50;;;;;-142.59;100.00;56100.38;4913385;28;49751;-66
2022/01/08 08:02:02;;;;;;;;;4.00;3.50;;;;;-142.59;100.00;56100.38;4913403;28;49788;-66
2022/01/08 08:04:27;;;;;;;;;5.00;3.00;;;;;-142.59;100.00;56100.38;4914044;28;50224;-66
2022/01/08 08:06:53;;;;;;;;;2.75;2.75;;;;;-142.59;100.00;56100.38;4913096;28;50319;-66
2022/01/08 08:09:18;;;;;;;;;6.25;4.00;;;;;-142.59;100.00;56100.38;4912967;28;49669;-66
2022/01/08 08:11:44;;;;;;;;;4.50;4.50;;;;;-142.59;100.00;56100.38;4913083;28;49665;-67
2022/01/08 08:14:10;;;;;;;;;4.50;4.00;;;;;-142.59;100.00;56100.38;4913259;28;49909;-67
2022/01/08 08:16:36;;;;;;;;;5.75;2.25;;;;;-142.59;100.00;56100.38;4913284;28;50057;-67
2022/01/08 08:19:02;;;;;;;;;6.50;4.50;;;;;-142.59;100.00;56100.38;4913000;28;49856;-67
2022/01/08 08:21:27;;;;;;;;;7.75;6.25;;;;;-142.59;100.00;56100.38;4913001;28;49804;-67
2022/01/08 08:23:53;;;;;;;;;3.00;3.00;;;;;-142.59;100.00;56100.38;4913282;28;49910;-68
2022/01/08 08:26:19;;;;;;;;;5.00;5.00;;;;;-142.59;100.00;56100.38;4912287;28;50504;-68
2022/01/08 08:28:44;;;;;;;;;6.50;3.50;;;;;-142.59;100.00;56100.38;4913121;28;49706;-68
2022/01/08 08:31:11;;;;;;;;;7.00;5.50;;;;;-142.59;100.00;56100.38;4913046;28;49830;-67
2022/01/08 08:33:38;;;;;;;;;6.50;5.75;;;;;-142.59;100.00;56100.38;4895940;28;49771;-67
2022/01/08 08:36:03;;;;;;;;;10.00;7.25;;;;;-142.59;100.00;56100.38;4912594;28;50417;-67
2022/01/08 08:38:29;;;;;;;;;7.50;6.50;;;;;-142.59;100.00;56100.38;4912635;28;49897;-68
2022/01/08 08:40:54;;;;;;;;;5.00;5.00;;;;;-142.59;100.00;56100.38;4912767;28;49753;-67
2022/01/08 08:43:20;;;;;;;;;3.50;2.75;;;;;-142.59;100.00;56100.38;4918495;28;49816;-67
2022/01/08 08:45:46;;;;;;;;;4.75;3.00;;;;;-142.59;100.00;56100.38;4918750;28;49812;-67
2022/01/08 08:48:12;;;;;;;;;3.50;3.50;;;;;-142.59;100.00;56100.38;4919136;28;49793;-67
2022/01/08 08:50:41;;;;;;;;;7.25;5.75;;;;;-142.59;100.00;56100.38;4919085;28;49592;-67
2022/01/08 08:53:06;;;;;;;;;3.00;2.00;;;;;-142.59;100.00;56100.38;4919058;28;49775;-67
2022/01/08 08:55:32;;;;;;;;;5.00;2.00;;;;;-142.59;100.00;56100.38;4918747;28;50417;-67
2022/01/08 08:57:57;;;;;;;;;5.50;5.50;;;;;-142.59;100.00;56100.38;4918962;28;49727;-67
2022/01/08 09:00:23;;;;;;;;;5.00;2.75;;;;;-142.59;100.00;56100.38;4918893;28;49717;-68
2022/01/08 09:02:49;;;;;;;;;1.50;1.50;;;;;-142.59;100.00;56100.38;4919110;28;49915;-67
2022/01/08 09:05:14;;;;;;;;;0.00;0.00;;;;;-142.59;100.00;56100.38;4918754;28;49856;-68
2022/01/08 09:07:39;;;;;;;;;6.00;2.00;;;;;-142.59;100.00;56100.38;4918703;28;49855;-68
2022/01/08 09:10:07;;;;;;;;;3.00;3.00;;;;;-142.59;100.00;56100.38;4901319;28;50220;-69
2022/01/08 09:12:32;;;;;;;;;2.75;2.75;;;;;-142.59;100.00;56100.38;4922735;28;49861;-67
2022/01/08 09:14:58;;;;;;;;;3.00;3.00;;;;;-142.59;100.00;56100.38;4906585;28;52295;-67
2022/01/08 09:17:25;;;;;;;;;2.25;2.25;;;;;-142.59;100.00;56100.38;4905418;28;49763;-68
2022/01/08 09:19:51;;;;;;;;;3.00;2.50;;;;;-142.59;100.00;56100.38;4918580;28;49705;-68
2022/01/08 09:22:17;;;;;;;;;2.25;2.25;;;;;-142.59;100.00;56100.38;4917816;28;49953;-68
2022/01/08 09:24:43;;;;;;;;;6.75;5.25;;;;;-142.59;100.00;56100.38;4918007;28;50477;-68
2022/01/08 09:27:08;;;;;;;;;3.00;2.00;;;;;-142.59;100.00;56100.38;4918371;28;49757;-68
2022/01/08 09:29:34;;;;;;;;;2.00;2.00;;;;;-142.59;100.00;56100.38;4918769;28;49911;-68
2022/01/08 09:31:59;;;;;;;;;3.25;1.50;;;;;-142.59;100.00;56100.38;4919144;28;49900;-68
2022/01/08 09:34:25;;;;;;;;;5.00;4.50;;;;;-142.59;100.00;56100.38;4918580;28;50755;-67
2022/01/08 09:36:51;;;;;;;;;6.00;5.25;;;;;-142.59;100.00;56100.38;4918547;28;49883;-68
2022/01/08 09:39:16;;;;;;;;;4.00;2.25;;;;;-142.59;100.00;56100.38;4918571;28;49701;-69
2022/01/08 09:41:42;;;;;;;;;5.75;4.00;;;;;-142.59;100.00;56100.38;4918527;28;49796;-70
2022/01/08 09:44:08;;;;;;;;;7.25;5.75;;;;;-142.59;100.00;56100.38;4918178;28;49742;-69
2022/01/08 09:46:33;;;;;;;;;4.00;4.00;;;;;-142.59;100.00;56100.38;4918404;28;49935;-68
2022/01/08 09:48:59;;;;;;;;;3.50;2.00;;;;;-142.59;100.00;56100.38;4918645;28;49700;-69
2022/01/08 09:51:26;;;;;;;;;4.75;3.00;;;;;-142.59;100.00;56100.38;4918948;28;49911;-73
2022/01/08 09:53:52;;;;;;;;;4.00;4.00;;;;;-142.59;100.00;56100.38;4915842;28;49756;-69
2022/01/08 09:56:17;;;;;;;;;4.00;3.25;;;;;-142.59;100.00;56100.38;4915037;28;49858;-69
2022/01/08 09:58:42;;;;;;;;;3.00;3.00;;;;;-142.59;100.00;56100.38;4915219;28;49852;-69
2022/01/08 10:01:26;;;;;;;;;3.75;3.00;;;;;-142.59;100.00;56100.38;4915370;28;49828;-70
2022/01/08 10:03:53;;;;;;;;;2.50;2.50;;;;;-142.59;100.00;56100.38;4914845;28;50935;-70
2022/01/08 10:06:24;;;;;;;;;3.00;2.75;;;;;-142.59;100.00;56100.38;4914900;28;49749;-70
2022/01/08 10:08:51;;;;;;;;;3.50;3.50;;;;;-142.59;100.00;56100.38;4915138;28;49937;-70
2022/01/08 10:11:21;;;;;;;;;6.25;6.25;;;;;-142.59;100.00;56100.38;4915020;28;49720;-70
2022/01/08 10:13:51;;;;;;;;;1.50;0.25;;;;;-142.59;100.00;56100.38;4914914;28;50927;-70
2022/01/08 10:19:20;;;;;;;;;4.25;3.00;;;;;-142.59;100.00;56100.38;4915024;28;49799;-70
2022/01/08 10:21:45;;;;;;;;;9.25;6.50;;;;;-142.59;100.00;56100.38;4897795;28;50098;-70
2022/01/08 10:24:11;;;;;;;;;2.75;2.50;;;;;-142.59;100.00;56100.38;4914705;28;50628;-71
2022/01/08 10:26:39;;;;;;;;;7.25;3.50;;;;;-142.59;100.00;56100.38;4914715;28;49753;-71
2022/01/08 10:29:09;;;;;;;;;8.00;6.25;;;;;-142.59;100.00;56100.38;4915251;28;49968;-70
2022/01/08 10:31:43;;;;;;;;;6.00;3.00;;;;;-142.59;100.00;56100.38;4908829;28;49661;-71
2022/01/08 10:34:17;;;;;;;;;7.50;6.00;;;;;-142.59;100.00;56100.38;4914736;28;50955;-72
2022/01/08 10:36:52;;;;;;;;;4.50;3.25;;;;;-142.59;100.00;56100.38;4914727;28;49815;-69
2022/01/08 10:39:20;;;;;;;;;5.50;4.50;;;;;-142.59;100.00;56100.38;4914471;28;50110;-71
2022/01/08 10:41:47;;;;;;;;;7.00;7.00;;;;;-142.59;100.00;56100.38;4914614;28;49687;-70
2022/01/08 10:44:15;;;;;;;;;4.50;3.50;;;;;-142.59;100.00;56100.38;4914514;28;49826;-75
2022/01/08 10:47:07;;;;;;;;;5.50;3.25;;;;;-142.59;100.00;56100.38;4914629;28;49875;-70
2022/01/08 10:49:38;;;;;;;;;6.50;5.50;;;;;-142.59;100.00;56100.38;4914278;28;49934;-70
2022/01/08 10:52:05;;;;;;;;;4.00;3.25;;;;;-142.59;100.00;56100.38;4914581;28;49984;-71
2022/01/08 10:54:33;;;;;;;;;7.00;4.00;;;;;-142.59;100.00;56100.38;4914416;28;49967;-70
2022/01/08 10:57:00;;;;;;;;;6.75;4.00;;;;;-142.59;100.00;56100.38;4914118;28;49717;-70
2022/01/08 10:59:27;;;;;;;;;5.00;5.00;;;;;-142.59;100.00;56100.38;4914391;28;49952;-70
2022/01/08 11:02:09;;;;;;;;;7.75;6.00;;;;;-142.59;100.00;56100.38;4914669;28;50059;-71
2022/01/08 11:04:50;;;;;;;;;6.25;6.00;;;;;-142.59;100.00;56100.38;4913985;28;49881;-72
2022/01/08 11:07:23;;;;;;;;;6.00;3.00;;;;;-142.59;100.00;56100.38;4897101;28;49703;-71
2022/01/08 11:09:51;;;;;;;;;3.50;3.50;;;;;-142.59;100.00;56100.38;4914246;28;49650;-71
2022/01/08 11:12:29;;;;;;;;;6.50;6.00;;;;;-142.59;100.00;56100.38;4914412;28;49870;-71
2022/01/08 11:15:12;;;;;;;;;4.50;4.50;;;;;-142.59;100.00;56100.38;4914065;28;49937;-71
2022/01/08 11:17:40;;;;;;;;;2.25;2.25;;;;;-142.59;100.00;56100.38;4914267;28;49794;-71
2022/01/08 11:20:10;;;;;;;;;9.00;5.50;;;;;-142.59;100.00;56100.38;4914049;28;49724;-68
2022/01/08 11:22:41;;;;;;;;;7.50;4.00;;;;;-142.59;100.00;56100.38;4914383;28;50021;-70
2022/01/08 11:25:08;;;;;;;;;7.75;7.00;;;;;-142.59;100.00;56100.38;4913843;28;50878;-69
2022/01/08 11:27:43;;;;;;;;;7.25;3.25;;;;;-142.59;100.00;56100.38;4913650;28;49770;-69
2022/01/08 11:30:16;;;;;;;;;6.00;4.50;;;;;-142.59;100.00;56100.38;4896450;28;49901;-69